Time;durP1;ratioP1;P1;durP2;ratioP2;P2;SDS_P1;SDS_P2;PMS_P1;PMS_P2;Temp;Humidity;BMP_temperature;BMP_pressure;BME280_temperature;BME280_humidity;BME280_pressure;Samples;Min_cycle;Max_cycle;Signal;HPM_P1;HPM_P2
2022/10/31 00:00:49;;;;;;;20.20;13.27;;;12.20;99.90;;;;;;5014771;28;20051;-73
2022/10/31 00:03:16;;;;;;;26.27;16.27;;;12.20;99.90;;;;;;5015323;28;20506;-73
2022/10/31 00:05:47;;;;;;;19.55;13.40;;;12.20;99.90;;;;;;5032670;28;20109;-72
2022/10/31 00:08:13;;;;;;;22.73;14.27;;;12.20;99.90;;;;;;5022275;28;20543;-73
2022/10/31 00:10:42;;;;;;;21.38;13.73;;;12.20;99.90;;;;;;5034884;28;20051;-73
2022/10/31 00:13:10;;;;;;;30.73;14.45;;;12.20;99.90;;;;;;5034851;28;20056;-73
2022/10/31 00:15:37;;;;;;;23.52;14.85;;;12.10;99.90;;;;;;5051876;28;20036;-73
2022/10/31 00:18:04;;;;;;;21.58;12.82;;;12.10;99.90;;;;;;5052094;28;20497;-72
2022/10/31 00:20:30;;;;;;;21.92;13.57;;;12.10;99.90;;;;;;5018699;28;20474;-72
2022/10/31 00:22:59;;;;;;;23.45;15.63;;;12.10;99.90;;;;;;5033286;28;20053;-73
2022/10/31 00:25:25;;;;;;;23.13;13.50;;;12.10;99.90;;;;;;5034509;28;20041;-73
2022/10/31 00:27:51;;;;;;;26.80;15.68;;;12.10;99.90;;;;;;5017680;28;20083;-73
2022/10/31 00:30:16;;;;;;;21.85;14.80;;;12.10;99.90;;;;;;5051769;28;20029;-73
2022/10/31 00:32:42;;;;;;;23.15;14.70;;;12.10;99.90;;;;;;5051926;28;20063;-73
2022/10/31 00:35:08;;;;;;;23.13;15.35;;;12.10;99.90;;;;;;5034386;28;20036;-73
2022/10/31 00:37:33;;;;;;;28.35;16.00;;;12.10;99.90;;;;;;5033579;28;20036;-73
2022/10/31 00:39:59;;;;;;;25.55;14.25;;;12.10;99.90;;;;;;5052004;28;20033;-72
2022/10/31 00:42:25;;;;;;;20.83;13.77;;;12.10;99.90;;;;;;5034583;28;20041;-73
2022/10/31 00:44:50;;;;;;;24.02;15.18;;;12.10;99.90;;;;;;5050873;28;20087;-73
2022/10/31 00:47:16;;;;;;;28.92;17.27;;;12.10;99.90;;;;;;5030869;28;20103;-73
2022/10/31 00:49:41;;;;;;;22.38;14.57;;;12.10;99.90;;;;;;5032322;28;20537;-73
2022/10/31 00:52:07;;;;;;;23.08;14.55;;;12.10;99.90;;;;;;5013628;28;20081;-73
2022/10/31 00:54:33;;;;;;;20.90;13.77;;;12.00;99.90;;;;;;5014508;28;20045;-73
2022/10/31 00:56:59;;;;;;;30.50;16.80;;;12.10;99.90;;;;;;5013363;28;20047;-73
2022/10/31 00:59:24;;;;;;;22.33;13.82;;;12.00;99.90;;;;;;5013808;28;20095;-73
2022/10/31 01:01:50;;;;;;;28.88;16.48;;;12.10;99.90;;;;;;5032154;28;20044;-63
2022/10/31 01:04:15;;;;;;;22.63;14.85;;;12.10;99.90;;;;;;5017064;28;20131;-63
2022/10/31 01:06:41;;;;;;;26.55;15.57;;;12.10;99.90;;;;;;5033946;28;20080;-62
2022/10/31 01:09:07;;;;;;;27.73;14.13;;;12.10;99.90;;;;;;5051705;28;20033;-63
2022/10/31 01:11:33;;;;;;;24.20;15.60;;;12.10;99.90;;;;;;5016670;28;20039;-62
2022/10/31 01:13:59;;;;;;;26.35;16.10;;;12.00;99.90;;;;;;5051582;28;20116;-62
2022/10/31 01:16:26;;;;;;;25.25;15.05;;;12.00;99.90;;;;;;5017755;28;20080;-63
2022/10/31 01:18:52;;;;;;;24.58;16.23;;;12.00;99.90;;;;;;5050803;28;20048;-62
2022/10/31 01:21:27;;;;;;;24.50;15.80;;;12.00;99.90;;;;;;5033973;28;20098;-62
2022/10/31 01:23:56;;;;;;;23.85;14.70;;;12.00;99.90;;;;;;5015981;28;20779;-63
2022/10/31 01:26:24;;;;;;;23.60;16.10;;;12.00;99.90;;;;;;5031312;28;20105;-62
2022/10/31 01:28:55;;;;;;;22.88;15.93;;;12.00;99.90;;;;;;4997548;28;20045;-63
2022/10/31 01:31:23;;;;;;;25.33;15.95;;;12.00;99.90;;;;;;5014406;28;20041;-63
2022/10/31 01:33:49;;;;;;;24.15;15.68;;;12.00;99.90;;;;;;5013097;28;20042;-62
2022/10/31 01:36:21;;;;;;;24.77;16.17;;;11.90;99.90;;;;;;5014285;28;20500;-62
2022/10/31 01:38:48;;;;;;;21.38;15.10;;;11.90;99.90;;;;;;5013877;28;20390;-63
2022/10/31 01:41:17;;;;;;;24.60;16.17;;;11.90;99.90;;;;;;5013487;28;20049;-63
2022/10/31 01:43:59;;;;;;;23.30;15.82;;;11.90;99.90;;;;;;5013612;28;20060;-62
2022/10/31 01:46:36;;;;;;;21.50;14.43;;;11.90;99.90;;;;;;5013552;28;20037;-63
2022/10/31 01:49:12;;;;;;;23.65;14.43;;;11.80;99.90;;;;;;5031485;28;20080;-63
2022/10/31 01:51:42;;;;;;;26.80;17.10;;;11.80;99.90;;;;;;5013790;28;20046;-62
2022/10/31 01:54:12;;;;;;;22.75;14.98;;;11.80;99.90;;;;;;5030942;28;20048;-63
2022/10/31 01:56:41;;;;;;;20.75;14.15;;;11.80;99.90;;;;;;5031784;28;20072;-63
2022/10/31 01:59:10;;;;;;;26.00;16.95;;;11.80;99.90;;;;;;5030819;28;20379;-62
2022/10/31 02:01:37;;;;;;;28.73;17.80;;;11.80;99.90;;;;;;5030720;28;20091;-62
2022/10/31 02:04:03;;;;;;;25.25;16.35;;;11.80;99.90;;;;;;5014054;28;20053;-62
2022/10/31 02:06:46;;;;;;;22.73;14.40;;;11.70;99.90;;;;;;5031546;28;20056;-63
2022/10/31 02:09:13;;;;;;;18.42;13.65;;;11.70;99.90;;;;;;5033889;28;20052;-63
2022/10/31 02:11:42;;;;;;;23.88;15.00;;;11.70;99.90;;;;;;5035144;28;20064;-62
2022/10/31 02:14:07;;;;;;;24.15;17.70;;;11.70;99.90;;;;;;5000435;28;20056;-63
2022/10/31 02:16:33;;;;;;;23.83;16.63;;;11.70;99.90;;;;;;5034094;28;20041;-63
2022/10/31 02:18:59;;;;;;;22.33;16.90;;;11.60;99.90;;;;;;5017237;28;20041;-62
2022/10/31 02:21:30;;;;;;;23.40;15.55;;;11.60;99.90;;;;;;5017338;28;20073;-62
2022/10/31 02:24:31;;;;;;;24.90;16.35;;;11.60;99.90;;;;;;5034883;28;20057;-62
2022/10/31 02:27:16;;;;;;;25.58;15.43;;;11.60;99.90;;;;;;5036310;28;20061;-63
2022/10/31 02:29:57;;;;;;;23.95;15.52;;;11.50;99.90;;;;;;5035797;28;20047;-62
2022/10/31 02:32:46;;;;;;;24.15;17.00;;;11.50;99.90;;;;;;5055020;28;20094;-62
2022/10/31 02:35:47;;;;;;;23.90;15.07;;;11.50;99.90;;;;;;5033415;28;20045;-62
2022/10/31 02:38:23;;;;;;;23.92;16.52;;;11.50;99.90;;;;;;5017407;28;20103;-62
2022/10/31 02:41:03;;;;;;;25.13;16.35;;;11.40;99.90;;;;;;5034257;28;20059;-63
2022/10/31 02:43:40;;;;;;;21.63;15.75;;;11.40;99.90;;;;;;5016294;28;20509;-63
2022/10/31 02:46:15;;;;;;;21.42;14.48;;;11.40;99.90;;;;;;5016829;28;20402;-62
2022/10/31 02:48:44;;;;;;;22.20;15.55;;;11.40;99.90;;;;;;5001103;28;20045;-62
2022/10/31 02:51:11;;;;;;;23.83;15.70;;;11.30;99.90;;;;;;5036070;28;20040;-63
2022/10/31 02:53:37;;;;;;;20.38;14.20;;;11.30;99.90;;;;;;5020092;28;20056;-62
2022/10/31 02:56:12;;;;;;;19.92;14.18;;;11.30;99.90;;;;;;5036329;28;20053;-62
2022/10/31 02:59:03;;;;;;;23.85;17.48;;;11.30;99.90;;;;;;5035356;28;20128;-62
2022/10/31 03:01:54;;;;;;;24.60;16.80;;;11.30;99.90;;;;;;5008711;28;20055;-62
2022/10/31 03:04:42;;;;;;;22.83;15.25;;;11.30;99.90;;;;;;5015907;28;20049;-63
2022/10/31 03:07:23;;;;;;;19.73;14.25;;;11.20;99.90;;;;;;5034198;28;20091;-62
2022/10/31 03:09:52;;;;;;;23.35;15.77;;;11.20;99.90;;;;;;5033751;28;20037;-63
2022/10/31 03:12:33;;;;;;;21.33;15.88;;;11.20;99.90;;;;;;5015619;28;20041;-63
2022/10/31 03:15:13;;;;;;;19.35;14.60;;;11.20;99.90;;;;;;5033738;28;20030;-63
2022/10/31 03:18:01;;;;;;;22.92;14.68;;;11.20;99.90;;;;;;5026192;28;20036;-62
2022/10/31 03:20:34;;;;;;;23.92;15.75;;;11.20;99.90;;;;;;5035316;28;20053;-63
2022/10/31 03:23:02;;;;;;;20.15;14.20;;;11.10;99.90;;;;;;5025166;28;20633;-63
2022/10/31 03:25:29;;;;;;;22.02;15.52;;;11.10;99.90;;;;;;5033047;28;20118;-62
2022/10/31 03:27:56;;;;;;;24.73;16.42;;;11.10;99.90;;;;;;5033474;28;20048;-63
2022/10/31 03:30:22;;;;;;;22.95;15.35;;;11.10;99.90;;;;;;5034032;28;20409;-63
2022/10/31 03:32:53;;;;;;;21.85;15.70;;;11.10;99.90;;;;;;5011180;28;20046;-62
2022/10/31 03:35:23;;;;;;;24.58;15.85;;;11.10;99.90;;;;;;5013950;28;20046;-62
2022/10/31 03:37:52;;;;;;;24.77;17.67;;;11.00;99.90;;;;;;4996430;28;20042;-62
2022/10/31 03:40:20;;;;;;;25.35;17.23;;;11.00;99.90;;;;;;5013008;28;20038;-62
2022/10/31 03:42:54;;;;;;;22.20;16.00;;;11.00;99.90;;;;;;4995754;28;20054;-62
2022/10/31 03:45:30;;;;;;;22.65;17.02;;;10.90;99.90;;;;;;4996231;28;20120;-63
2022/10/31 03:47:58;;;;;;;23.00;15.68;;;10.90;99.90;;;;;;5029076;28;20103;-62
2022/10/31 03:50:28;;;;;;;28.08;19.10;;;10.90;99.90;;;;;;5015689;28;20091;-62
2022/10/31 03:53:11;;;;;;;26.13;17.02;;;10.90;99.90;;;;;;4998701;28;20046;-63
2022/10/31 03:55:52;;;;;;;26.63;16.17;;;10.90;99.90;;;;;;5015226;28;20044;-63
2022/10/31 03:58:22;;;;;;;24.60;17.40;;;10.90;99.90;;;;;;5015443;28;20033;-63
2022/10/31 04:00:51;;;;;;;24.08;16.52;;;10.90;99.90;;;;;;4997891;28;20123;-63
2022/10/31 04:03:26;;;;;;;25.08;16.17;;;10.90;99.90;;;;;;5033204;28;20084;-62
2022/10/31 04:05:54;;;;;;;28.08;19.23;;;10.80;99.90;;;;;;5015519;28;20430;-62
2022/10/31 04:08:25;;;;;;;24.15;15.60;;;10.80;99.90;;;;;;5014375;28;20483;-62
2022/10/31 04:10:52;;;;;;;21.55;14.52;;;10.80;99.90;;;;;;5014855;28;20048;-63
2022/10/31 04:13:23;;;;;;;22.65;16.20;;;10.80;99.90;;;;;;5014969;28;20037;-62
2022/10/31 04:15:52;;;;;;;18.80;14.43;;;10.80;99.90;;;;;;5014138;28;20087;-63
2022/10/31 04:18:26;;;;;;;20.90;15.25;;;10.80;99.90;;;;;;5032978;28;20037;-62
2022/10/31 04:21:07;;;;;;;22.02;14.80;;;10.80;99.90;;;;;;5014990;28;20100;-63
2022/10/31 04:23:34;;;;;;;22.95;15.80;;;10.80;99.90;;;;;;5029612;28;20517;-62
2022/10/31 04:26:00;;;;;;;22.88;15.10;;;10.80;99.90;;;;;;5034462;28;20494;-62
2022/10/31 04:28:26;;;;;;;22.33;15.43;;;10.80;99.90;;;;;;5030585;28;20188;-62
2022/10/31 04:30:52;;;;;;;19.60;14.20;;;10.70;99.90;;;;;;5031966;28;20121;-62
2022/10/31 04:33:18;;;;;;;20.73;14.10;;;10.80;99.90;;;;;;5032822;28;20041;-63
2022/10/31 04:35:44;;;;;;;21.45;14.23;;;10.70;99.90;;;;;;5013874;28;20055;-62
2022/10/31 04:38:09;;;;;;;25.13;15.32;;;10.70;99.90;;;;;;5014781;28;20037;-62
2022/10/31 04:40:35;;;;;;;22.15;15.18;;;10.80;99.90;;;;;;5017537;28;20051;-62
2022/10/31 04:43:01;;;;;;;24.63;17.00;;;10.70;99.90;;;;;;5017449;28;20049;-63
2022/10/31 04:45:26;;;;;;;25.83;15.70;;;10.80;99.90;;;;;;5034589;28;20045;-62
2022/10/31 04:47:52;;;;;;;21.55;14.90;;;10.70;99.90;;;;;;5033620;28;20063;-62
2022/10/31 04:50:18;;;;;;;24.63;15.75;;;10.70;99.90;;;;;;5051514;28;20033;-62
2022/10/31 04:52:44;;;;;;;24.15;15.65;;;10.70;99.90;;;;;;5034166;28;20037;-62
2022/10/31 04:55:11;;;;;;;25.67;17.05;;;10.70;99.90;;;;;;5018131;28;20032;-63
2022/10/31 04:57:45;;;;;;;24.40;15.50;;;10.70;99.90;;;;;;5033447;28;20121;-62
2022/10/31 05:00:12;;;;;;;24.23;15.90;;;10.70;99.90;;;;;;5034239;28;20049;-62
2022/10/31 05:02:45;;;;;;;21.73;15.73;;;10.70;99.90;;;;;;5030464;28;20046;-62
2022/10/31 05:05:12;;;;;;;21.95;15.32;;;10.70;99.90;;;;;;5013905;28;20077;-63
2022/10/31 05:07:40;;;;;;;21.45;15.60;;;10.70;99.90;;;;;;5018983;28;20049;-62
2022/10/31 05:10:06;;;;;;;22.20;15.80;;;10.70;99.90;;;;;;5030650;28;20112;-62
2022/10/31 05:12:31;;;;;;;22.13;16.35;;;10.70;99.90;;;;;;5048376;28;20120;-62
2022/10/31 05:14:57;;;;;;;21.80;15.80;;;10.70;99.90;;;;;;5033882;28;20086;-62
2022/10/31 05:17:23;;;;;;;26.73;16.98;;;10.80;99.90;;;;;;5051295;28;20045;-62
2022/10/31 05:19:48;;;;;;;24.80;15.88;;;10.70;99.90;;;;;;5033734;28;20418;-62
2022/10/31 05:22:14;;;;;;;24.35;16.42;;;10.70;99.90;;;;;;5029564;28;20053;-62
2022/10/31 05:24:40;;;;;;;23.38;16.48;;;10.70;99.90;;;;;;5013411;28;20045;-62
2022/10/31 05:27:05;;;;;;;24.48;16.70;;;10.70;99.90;;;;;;5031623;28;20406;-62
2022/10/31 05:29:33;;;;;;;24.00;15.90;;;10.70;99.90;;;;;;5032253;28;20049;-62
2022/10/31 05:31:59;;;;;;;30.17;19.60;;;10.60;99.90;;;;;;5030892;28;20103;-62
2022/10/31 05:34:24;;;;;;;23.55;16.40;;;10.70;99.90;;;;;;5014666;28;20072;-63
2022/10/31 05:36:50;;;;;;;21.75;16.60;;;10.60;99.90;;;;;;5013538;28;20046;-62
2022/10/31 05:39:16;;;;;;;25.10;16.33;;;10.60;99.90;;;;;;4996941;28;20082;-63
2022/10/31 05:41:41;;;;;;;24.33;17.10;;;10.60;99.90;;;;;;5014004;28;20120;-62
2022/10/31 05:44:07;;;;;;;25.30;17.23;;;10.60;99.90;;;;;;5017570;28;20054;-62
2022/10/31 05:46:33;;;;;;;26.05;17.77;;;10.60;99.90;;;;;;5034363;28;20478;-62
2022/10/31 05:48:58;;;;;;;21.58;16.33;;;10.60;99.90;;;;;;5035453;28;20113;-62
2022/10/31 05:51:24;;;;;;;24.88;17.60;;;10.60;99.90;;;;;;5017749;28;20049;-62
2022/10/31 05:53:50;;;;;;;24.98;17.40;;;10.60;99.90;;;;;;5034467;28;20048;-62
2022/10/31 05:56:15;;;;;;;25.67;17.23;;;10.60;99.90;;;;;;5018106;28;20042;-62
2022/10/31 05:58:41;;;;;;;22.50;15.85;;;10.60;99.90;;;;;;5017509;28;20486;-62
2022/10/31 06:01:06;;;;;;;22.92;17.33;;;10.60;99.90;;;;;;5016970;28;20056;-62
2022/10/31 06:03:32;;;;;;;23.27;17.75;;;10.60;99.90;;;;;;5035258;28;20467;-62
2022/10/31 06:05:58;;;;;;;23.23;17.15;;;10.50;99.90;;;;;;5034941;28;20375;-62
2022/10/31 06:08:23;;;;;;;23.50;16.63;;;10.50;99.90;;;;;;5034874;28;20489;-62
2022/10/31 06:10:49;;;;;;;22.30;16.08;;;10.50;99.90;;;;;;5017054;28;20471;-63
2022/10/31 06:13:15;;;;;;;20.45;14.90;;;10.50;99.90;;;;;;5017674;28;20095;-62
2022/10/31 06:15:44;;;;;;;22.55;16.80;;;10.50;99.90;;;;;;4999916;28;20112;-62
2022/10/31 06:18:09;;;;;;;24.15;15.80;;;10.50;99.90;;;;;;5017453;28;20083;-62
2022/10/31 06:20:35;;;;;;;22.23;16.40;;;10.40;99.90;;;;;;5034739;28;20033;-62
2022/10/31 06:23:01;;;;;;;22.92;16.27;;;10.40;99.90;;;;;;5044860;28;20120;-62
2022/10/31 06:25:28;;;;;;;20.65;15.57;;;10.40;99.90;;;;;;5055184;28;20045;-62
2022/10/31 06:27:54;;;;;;;22.02;17.15;;;10.40;99.90;;;;;;5035760;28;20052;-62
2022/10/31 06:30:19;;;;;;;21.30;17.00;;;10.40;99.90;;;;;;5037154;28;20090;-62
2022/10/31 06:32:46;;;;;;;23.17;17.05;;;10.40;99.90;;;;;;5054128;28;20534;-62
2022/10/31 06:35:11;;;;;;;27.17;18.73;;;10.40;99.90;;;;;;5035833;28;20120;-62
2022/10/31 06:37:37;;;;;;;29.40;20.92;;;10.40;99.90;;;;;;5054770;28;20166;-62
2022/10/31 06:40:03;;;;;;;23.90;16.95;;;10.40;99.90;;;;;;5036481;28;20525;-62
2022/10/31 06:42:29;;;;;;;20.17;15.43;;;10.40;99.90;;;;;;5032418;28;20049;-63
2022/10/31 06:44:55;;;;;;;22.02;16.05;;;10.40;99.90;;;;;;5034245;28;20048;-62
2022/10/31 06:47:20;;;;;;;21.85;15.85;;;10.40;99.90;;;;;;5032426;28;20375;-62
2022/10/31 06:49:46;;;;;;;19.77;15.57;;;10.40;99.90;;;;;;5053427;28;20463;-62
2022/10/31 06:52:12;;;;;;;26.55;19.30;;;10.30;99.90;;;;;;5035091;28;20482;-62
2022/10/31 06:54:37;;;;;;;26.27;18.23;;;10.40;99.90;;;;;;5052048;28;20039;-62
2022/10/31 06:57:03;;;;;;;28.50;20.55;;;10.30;99.90;;;;;;5033521;28;20084;-62
2022/10/31 06:59:29;;;;;;;23.15;16.88;;;10.30;99.90;;;;;;5053883;28;20033;-63
2022/10/31 07:01:54;;;;;;;18.27;14.00;;;10.30;99.90;;;;;;5053673;28;20401;-67
2022/10/31 07:04:20;;;;;;;26.08;16.75;;;10.30;99.90;;;;;;5019092;28;20468;-63
2022/10/31 07:06:46;;;;;;;21.00;16.25;;;10.40;99.90;;;;;;5035283;28;20047;-63
2022/10/31 07:09:11;;;;;;;24.98;17.65;;;10.40;99.90;;;;;;5036661;28;20204;-62
2022/10/31 07:11:37;;;;;;;20.75;16.02;;;10.40;99.90;;;;;;5035023;28;20448;-62
2022/10/31 07:14:02;;;;;;;19.75;15.23;;;10.40;99.90;;;;;;5035827;28;20041;-62
2022/10/31 07:16:28;;;;;;;18.45;14.43;;;10.30;99.90;;;;;;5036635;28;20091;-62
2022/10/31 07:18:54;;;;;;;21.20;15.35;;;10.30;99.90;;;;;;5031868;28;20098;-62
2022/10/31 07:21:19;;;;;;;25.35;19.45;;;10.30;99.90;;;;;;5032097;28;20049;-62
2022/10/31 07:23:48;;;;;;;19.75;15.63;;;10.40;99.90;;;;;;5032686;28;20485;-62
2022/10/31 07:26:14;;;;;;;22.75;17.00;;;10.40;99.90;;;;;;5030321;28;20136;-62
2022/10/31 07:28:40;;;;;;;33.50;20.45;;;10.40;99.90;;;;;;5033020;28;20124;-62
2022/10/31 07:31:05;;;;;;;20.08;16.05;;;10.40;99.90;;;;;;5028342;28;20096;-63
2022/10/31 07:33:31;;;;;;;21.42;16.50;;;10.50;99.90;;;;;;5013313;28;20445;-62
2022/10/31 07:35:56;;;;;;;24.35;18.98;;;10.40;99.90;;;;;;5049628;28;20467;-62
2022/10/31 07:38:22;;;;;;;26.08;19.25;;;10.50;99.90;;;;;;5048083;28;20561;-62
2022/10/31 07:40:55;;;;;;;28.20;21.38;;;10.50;99.90;;;;;;5032397;28;20037;-62
2022/10/31 07:43:21;;;;;;;25.25;16.77;;;10.50;99.90;;;;;;5032539;28;20052;-62
2022/10/31 07:45:53;;;;;;;26.77;16.30;;;10.50;99.90;;;;;;5014374;28;20049;-62
2022/10/31 07:48:19;;;;;;;22.25;16.60;;;10.60;99.90;;;;;;5030980;28;20368;-62
2022/10/31 07:50:46;;;;;;;22.55;17.00;;;10.60;99.90;;;;;;5046460;28;20037;-62
2022/10/31 07:53:13;;;;;;;21.60;17.25;;;10.60;99.90;;;;;;5031471;28;20048;-62
2022/10/31 07:55:39;;;;;;;27.48;17.05;;;10.60;99.90;;;;;;5029701;28;20044;-63
2022/10/31 07:58:07;;;;;;;23.17;17.95;;;10.60;99.90;;;;;;5050353;28;20083;-62
2022/10/31 08:00:35;;;;;;;23.05;16.70;;;10.70;99.90;;;;;;5049389;28;20396;-62
2022/10/31 08:03:03;;;;;;;25.17;16.17;;;10.70;99.90;;;;;;5050295;28;20084;-62
2022/10/31 08:05:30;;;;;;;22.13;17.55;;;10.70;99.90;;;;;;5031762;28;20045;-62
2022/10/31 08:07:56;;;;;;;23.45;17.35;;;10.70;99.90;;;;;;5043432;28;20044;-62
2022/10/31 08:10:22;;;;;;;23.33;16.98;;;10.80;99.90;;;;;;5013535;28;20044;-62
2022/10/31 08:12:55;;;;;;;24.20;16.88;;;10.80;99.90;;;;;;5029207;28;20390;-62
2022/10/31 08:15:21;;;;;;;23.38;17.63;;;10.90;99.90;;;;;;5017508;28;20037;-62
2022/10/31 08:17:46;;;;;;;23.98;17.20;;;10.90;99.90;;;;;;5011609;28;20472;-62
2022/10/31 08:20:12;;;;;;;21.88;17.10;;;10.90;99.90;;;;;;5023990;28;20049;-63
2022/10/31 08:22:38;;;;;;;22.73;17.50;;;11.00;99.90;;;;;;5043430;28;20049;-62
2022/10/31 08:25:04;;;;;;;24.00;17.90;;;11.10;99.90;;;;;;5030235;28;20052;-63
2022/10/31 08:27:30;;;;;;;24.63;18.48;;;11.10;99.90;;;;;;5030844;28;20533;-63
2022/10/31 08:29:59;;;;;;;23.33;17.65;;;11.10;99.90;;;;;;5048430;28;20064;-63
2022/10/31 08:33:09;;;;;;;23.38;18.05;;;11.20;99.90;;;;;;5015565;28;20366;-63
2022/10/31 08:35:35;;;;;;;24.95;16.88;;;11.20;99.90;;;;;;5043879;28;20049;-63
2022/10/31 08:38:01;;;;;;;24.20;17.20;;;11.30;99.90;;;;;;5013907;28;20044;-62
2022/10/31 08:40:30;;;;;;;22.98;17.88;;;11.30;99.90;;;;;;5032036;28;20045;-63
2022/10/31 08:43:04;;;;;;;23.88;17.45;;;11.40;99.90;;;;;;5029562;28;20094;-63
2022/10/31 08:45:31;;;;;;;19.73;16.08;;;11.50;99.90;;;;;;5031176;28;20037;-63
2022/10/31 08:48:04;;;;;;;21.65;15.70;;;11.50;99.90;;;;;;5014670;28;20051;-63
2022/10/31 08:50:32;;;;;;;18.52;15.48;;;11.60;99.90;;;;;;5045299;28;20045;-63
2022/10/31 08:53:02;;;;;;;21.58;15.63;;;11.70;99.90;;;;;;5048864;28;20041;-62
2022/10/31 08:55:28;;;;;;;20.38;16.10;;;11.80;99.90;;;;;;5024189;28;20704;-62
2022/10/31 08:57:57;;;;;;;21.75;15.70;;;11.90;99.90;;;;;;5031201;28;20097;-63
2022/10/31 09:00:23;;;;;;;18.02;14.82;;;11.90;99.90;;;;;;5032716;28;20073;-63
2022/10/31 09:02:58;;;;;;;20.65;15.30;;;12.00;99.90;;;;;;5016217;28;20080;-63
2022/10/31 09:05:24;;;;;;;19.65;14.98;;;12.00;99.90;;;;;;5033206;28;20041;-62
2022/10/31 09:07:50;;;;;;;18.92;13.75;;;12.10;99.90;;;;;;5050231;28;20041;-63
2022/10/31 09:10:15;;;;;;;19.10;13.75;;;12.20;99.90;;;;;;5033387;28;20120;-63
2022/10/31 09:12:41;;;;;;;21.40;14.90;;;12.30;99.90;;;;;;5051099;28;20048;-63
2022/10/31 09:15:08;;;;;;;18.35;12.80;;;12.30;99.90;;;;;;5030775;28;20041;-63
2022/10/31 09:17:33;;;;;;;17.42;12.98;;;12.40;99.90;;;;;;5014357;28;20500;-63
2022/10/31 09:19:59;;;;;;;16.17;12.55;;;12.50;99.90;;;;;;5036230;28;20046;-62
2022/10/31 09:22:25;;;;;;;19.77;13.00;;;12.60;99.90;;;;;;5003299;28;20089;-63
2022/10/31 09:24:51;;;;;;;22.05;13.23;;;12.60;99.90;;;;;;5037189;28;20454;-63
2022/10/31 09:27:16;;;;;;;17.98;11.70;;;12.80;99.90;;;;;;5038044;28;20044;-63
2022/10/31 09:29:42;;;;;;;15.35;10.55;;;12.80;99.90;;;;;;5021571;28;20045;-63
2022/10/31 09:32:07;;;;;;;15.48;11.18;;;12.90;99.90;;;;;;5055128;28;20045;-63
2022/10/31 09:34:33;;;;;;;14.82;11.07;;;13.00;99.90;;;;;;5055422;28;20033;-62
2022/10/31 09:36:59;;;;;;;20.65;12.68;;;13.00;99.90;;;;;;5037612;28;20529;-63
2022/10/31 09:39:25;;;;;;;15.55;10.80;;;13.10;99.90;;;;;;5035384;28;20381;-63
2022/10/31 09:42:05;;;;;;;13.88;10.23;;;13.20;99.90;;;;;;5036749;28;20041;-63
2022/10/31 09:44:42;;;;;;;15.32;10.57;;;13.20;99.90;;;;;;5037842;28;20045;-63
2022/10/31 09:47:30;;;;;;;13.95;10.25;;;13.30;99.90;;;;;;5037611;28;20083;-63
2022/10/31 09:49:56;;;;;;;13.85;9.23;;;13.40;99.90;;;;;;5037170;28;20029;-63
2022/10/31 09:52:31;;;;;;;17.58;9.73;;;13.50;99.90;;;;;;5056292;28;20043;-63
2022/10/31 09:55:13;;;;;;;13.95;9.05;;;13.50;99.90;;;;;;5056785;28;20153;-63
2022/10/31 09:57:41;;;;;;;12.90;9.23;;;13.60;99.90;;;;;;5050171;28;20128;-63
2022/10/31 10:00:15;;;;;;;14.05;9.65;;;13.60;99.90;;;;;;5056781;28;20098;-63
2022/10/31 10:03:03;;;;;;;15.82;11.15;;;13.70;99.90;;;;;;5040863;28;20041;-63
2022/10/31 10:05:51;;;;;;;15.48;9.57;;;13.70;99.90;;;;;;5032185;28;20073;-63
2022/10/31 10:08:24;;;;;;;13.60;9.98;;;13.80;99.90;;;;;;5043005;28;20036;-63
2022/10/31 10:10:59;;;;;;;14.05;9.18;;;13.80;99.90;;;;;;5036447;28;20063;-63
2022/10/31 10:14:03;;;;;;;18.65;10.23;;;13.70;99.90;;;;;;5054168;28;20037;-64
2022/10/31 10:16:40;;;;;;;14.23;9.77;;;13.70;99.90;;;;;;5037005;28;20547;-63
2022/10/31 10:19:20;;;;;;;15.48;10.45;;;13.60;99.90;;;;;;5036388;28;20044;-63
2022/10/31 10:22:10;;;;;;;14.48;10.07;;;13.60;99.90;;;;;;5018193;28;20044;-63
2022/10/31 10:25:13;;;;;;;13.63;9.77;;;13.70;99.90;;;;;;5039429;28;20525;-64
2022/10/31 10:28:08;;;;;;;15.32;10.07;;;13.70;99.90;;;;;;5032806;28;20041;-63
2022/10/31 10:30:41;;;;;;;13.23;9.10;;;13.70;99.90;;;;;;5034526;28;20552;-63
2022/10/31 10:33:35;;;;;;;16.30;9.70;;;13.80;99.90;;;;;;5036229;28;20044;-63
2022/10/31 10:36:05;;;;;;;13.93;9.90;;;13.90;99.90;;;;;;5034873;28;20028;-63
2022/10/31 10:38:42;;;;;;;22.25;11.15;;;14.00;99.90;;;;;;5035749;28;20037;-63
2022/10/31 10:41:17;;;;;;;15.52;10.07;;;14.10;99.90;;;;;;5034787;28;20033;-63
2022/10/31 10:43:43;;;;;;;;;;;14.10;99.90;;;;;;5053795;28;20039;-63
2022/10/31 10:49:18;;;;;;;15.85;9.90;;;14.30;99.90;;;;;;5034952;28;20049;-63
2022/10/31 10:51:51;;;;;;;14.85;10.70;;;14.40;99.90;;;;;;5040605;28;20158;-63
2022/10/31 10:54:38;;;;;;;13.80;10.35;;;14.40;99.90;;;;;;5032909;28;20041;-62
2022/10/31 10:57:25;;;;;;;17.70;10.05;;;14.40;99.90;;;;;;5046410;28;20041;-62
2022/10/31 10:59:51;;;;;;;13.38;8.85;;;14.40;99.90;;;;;;5052692;28;20037;-62
2022/10/31 11:02:21;;;;;;;14.93;9.82;;;14.50;99.90;;;;;;5036030;28;20056;-62
2022/10/31 11:04:56;;;;;;;12.45;9.38;;;14.60;99.90;;;;;;5032254;28;20087;-62
2022/10/31 11:07:22;;;;;;;14.55;9.65;;;14.80;99.90;;;;;;5016663;28;20125;-61
2022/10/31 11:09:48;;;;;;;15.45;10.75;;;14.90;99.90;;;;;;5010161;28;20120;-61
2022/10/31 11:12:21;;;;;;;15.00;9.40;;;14.90;99.90;;;;;;5035807;28;20073;-61
2022/10/31 11:15:06;;;;;;;14.38;10.73;;;14.90;99.90;;;;;;5035773;28;20052;-61
2022/10/31 11:17:35;;;;;;;15.35;10.27;;;14.90;99.90;;;;;;5053495;28;20120;-61
2022/10/31 11:20:11;;;;;;;17.40;9.95;;;14.90;99.90;;;;;;5032137;28;20038;-61
2022/10/31 11:22:37;;;;;;;17.67;9.52;;;15.00;99.90;;;;;;5025193;28;20045;-61
2022/10/31 11:25:23;;;;;;;13.95;8.95;;;15.10;99.90;;;;;;5033305;28;20043;-63
2022/10/31 11:28:03;;;;;;;14.70;9.20;;;15.00;99.90;;;;;;5055388;28;20033;-62
2022/10/31 11:30:30;;;;;;;12.13;8.30;;;15.00;99.90;;;;;;5053103;28;20501;-63
2022/10/31 11:32:57;;;;;;;14.30;8.80;;;14.90;99.90;;;;;;5019173;28;20052;-63
2022/10/31 11:35:24;;;;;;;15.60;10.05;;;14.90;99.90;;;;;;5035662;28;20508;-63
2022/10/31 11:37:53;;;;;;;19.27;11.40;;;14.90;99.90;;;;;;5017983;28;20390;-63
2022/10/31 11:40:22;;;;;;;15.85;9.43;;;14.90;99.90;;;;;;5018401;28;20053;-63
2022/10/31 11:42:51;;;;;;;15.20;10.93;;;14.90;99.90;;;;;;5052843;28;20401;-63
2022/10/31 11:45:23;;;;;;;14.10;8.80;;;15.00;99.90;;;;;;5034981;28;20107;-63
2022/10/31 11:47:50;;;;;;;13.63;8.77;;;15.00;99.90;;;;;;5034803;28;20063;-63
2022/10/31 11:50:25;;;;;;;14.98;9.02;;;15.00;99.90;;;;;;5053352;28;20068;-63
2022/10/31 11:52:53;;;;;;;14.38;8.10;;;15.00;99.90;;;;;;5017540;28;20041;-65
2022/10/31 11:55:35;;;;;;;14.10;9.27;;;15.00;99.90;;;;;;5035750;28;20067;-64
2022/10/31 11:58:01;;;;;;;12.98;9.60;;;15.00;99.90;;;;;;5035098;28;20105;-64
2022/10/31 12:00:40;;;;;;;16.02;10.73;;;15.00;99.90;;;;;;5034562;28;20128;-64
2022/10/31 12:03:33;;;;;;;17.25;11.32;;;14.90;99.90;;;;;;5034882;28;20518;-64
2022/10/31 12:06:03;;;;;;;17.88;11.27;;;14.90;99.90;;;;;;5051837;28;20043;-64
2022/10/31 12:08:35;;;;;;;14.52;10.45;;;14.90;99.90;;;;;;5035342;28;20421;-64
2022/10/31 12:11:08;;;;;;;15.35;9.95;;;14.80;99.90;;;;;;5034924;28;20045;-64
2022/10/31 12:13:35;;;;;;;15.02;9.98;;;14.80;99.90;;;;;;5034004;28;20045;-64
2022/10/31 12:16:33;;;;;;;15.23;10.15;;;14.70;99.90;;;;;;5034796;28;20477;-64
2022/10/31 12:19:13;;;;;;;17.60;9.80;;;14.70;99.90;;;;;;5034970;28;20144;-64
2022/10/31 12:21:59;;;;;;;17.52;12.52;;;14.60;99.90;;;;;;5033785;28;20123;-64
2022/10/31 12:24:33;;;;;;;21.17;16.13;;;14.60;99.90;;;;;;5018452;28;20067;-64
2022/10/31 12:27:07;;;;;;;16.00;11.73;;;14.60;99.90;;;;;;5051811;28;20049;-64
2022/10/31 12:29:54;;;;;;;16.70;10.30;;;14.70;99.90;;;;;;5052650;28;20123;-64
2022/10/31 12:32:33;;;;;;;15.57;9.43;;;14.70;99.90;;;;;;5034865;28;20095;-64
2022/10/31 12:35:16;;;;;;;14.02;8.57;;;14.80;99.90;;;;;;5051571;28;20033;-62
2022/10/31 12:38:08;;;;;;;14.32;8.93;;;14.80;99.90;;;;;;5052143;28;20040;-62
2022/10/31 12:40:59;;;;;;;12.80;7.53;;;14.90;99.90;;;;;;4996365;28;20052;-62
2022/10/31 12:43:52;;;;;;;11.88;7.90;;;14.90;99.90;;;;;;5052497;28;20485;-62
2022/10/31 12:47:00;;;;;;;12.38;7.00;;;14.90;99.90;;;;;;5052622;28;20106;-63
2022/10/31 12:49:51;;;;;;;11.40;7.45;;;14.90;99.90;;;;;;5052092;28;20037;-63